Time;durP1;ratioP1;P1;durP2;ratioP2;P2;SDS_P1;SDS_P2;PMS_P1;PMS_P2;Temp;Humidity;BMP_temperature;BMP_pressure;BME280_temperature;BME280_humidity;BME280_pressure;Samples;Min_cycle;Max_cycle;Signal;HPM_P1;HPM_P2
2022/11/30 00:00:03;;;;;;;108.95;52.08;;;6.90;99.90;;;;;;4987931;28;20410;-81
2022/11/30 00:02:29;;;;;;;102.25;51.42;;;6.90;99.90;;;;;;4990724;28;20491;-80
2022/11/30 00:04:55;;;;;;;99.40;49.60;;;6.90;99.90;;;;;;4990392;28;20096;-80
2022/11/30 00:07:27;;;;;;;105.20;50.58;;;6.80;99.90;;;;;;4991434;28;20414;-80
2022/11/30 00:09:55;;;;;;;101.90;51.65;;;6.80;99.90;;;;;;4992361;28;20121;-80
2022/11/30 00:12:20;;;;;;;107.95;54.28;;;6.80;99.90;;;;;;4992556;28;20413;-80
2022/11/30 00:14:46;;;;;;;103.28;52.33;;;6.80;99.90;;;;;;4990965;28;20057;-80
2022/11/30 00:17:12;;;;;;;105.53;51.35;;;6.80;99.90;;;;;;4989651;28;20054;-80
2022/11/30 00:19:38;;;;;;;123.55;56.83;;;6.80;99.90;;;;;;4990630;28;20128;-80
2022/11/30 00:22:03;;;;;;;118.72;55.15;;;6.80;99.90;;;;;;5008391;28;20044;-80
2022/11/30 00:24:29;;;;;;;106.13;52.95;;;6.80;99.90;;;;;;4989423;28;20049;-80
2022/11/30 00:26:54;;;;;;;111.80;58.03;;;6.80;99.90;;;;;;4986596;28;20393;-80
2022/11/30 00:29:20;;;;;;;119.70;56.35;;;6.80;99.90;;;;;;4990559;28;20046;-80
2022/11/30 00:31:45;;;;;;;113.78;53.53;;;6.90;99.90;;;;;;4990446;28;20056;-80
2022/11/30 00:34:11;;;;;;;109.05;52.92;;;6.90;99.90;;;;;;5000239;28;20056;-80
2022/11/30 00:36:38;;;;;;;125.30;56.72;;;6.90;99.90;;;;;;4989612;28;20081;-80
2022/11/30 00:39:03;;;;;;;109.88;53.90;;;6.80;99.90;;;;;;4987314;28;20050;-80
2022/11/30 00:41:29;;;;;;;119.95;57.83;;;6.80;99.90;;;;;;4990131;28;20545;-80
2022/11/30 00:43:55;;;;;;;130.45;60.03;;;6.90;99.90;;;;;;4989145;28;20042;-80
2022/11/30 00:46:20;;;;;;;112.68;55.58;;;6.90;99.90;;;;;;5007551;28;20056;-80
2022/11/30 00:48:46;;;;;;;132.40;58.15;;;6.90;99.90;;;;;;4989728;28;20511;-81
2022/11/30 00:51:13;;;;;;;122.55;57.53;;;6.90;99.90;;;;;;5002034;28;20164;-80
2022/11/30 00:53:39;;;;;;;122.45;55.20;;;6.80;99.90;;;;;;4989899;28;20038;-80
2022/11/30 00:56:06;;;;;;;126.97;57.30;;;6.80;99.90;;;;;;4990283;28;20052;-79
2022/11/30 00:58:33;;;;;;;120.10;57.42;;;6.80;99.90;;;;;;5005704;28;20050;-80
2022/11/30 01:00:59;;;;;;;128.82;55.88;;;6.80;99.90;;;;;;4990130;28;20053;-80
2022/11/30 01:03:24;;;;;;;127.22;57.88;;;6.80;99.90;;;;;;4978281;28;20041;-80
2022/11/30 01:05:50;;;;;;;119.35;57.88;;;6.80;99.90;;;;;;4985797;28;20050;-80
2022/11/30 01:08:16;;;;;;;117.25;55.72;;;6.80;99.90;;;;;;5002965;28;20037;-80
2022/11/30 01:10:43;;;;;;;118.30;54.03;;;6.80;99.90;;;;;;5007428;28;20415;-80
2022/11/30 01:13:11;;;;;;;117.20;56.92;;;6.80;99.90;;;;;;4991295;28;20054;-80
2022/11/30 01:15:42;;;;;;;124.30;57.92;;;6.80;99.90;;;;;;4992956;28;20104;-80
2022/11/30 01:18:08;;;;;;;127.20;55.03;;;6.80;99.90;;;;;;4993410;28;20052;-80
2022/11/30 01:20:34;;;;;;;121.53;56.80;;;6.80;99.90;;;;;;4993235;28;20474;-80
2022/11/30 01:23:01;;;;;;;112.45;55.00;;;6.80;99.90;;;;;;4992171;28;20054;-80
2022/11/30 01:25:26;;;;;;;118.65;53.88;;;6.80;99.90;;;;;;4993740;28;20042;-80
2022/11/30 01:27:52;;;;;;;122.03;56.05;;;6.80;99.90;;;;;;4993725;28;20060;-80
2022/11/30 01:30:18;;;;;;;121.88;57.53;;;6.70;99.90;;;;;;4993112;28;20054;-80
2022/11/30 01:32:44;;;;;;;113.32;56.17;;;6.70;99.90;;;;;;4992845;28;20419;-80
2022/11/30 01:35:10;;;;;;;123.55;58.00;;;6.70;99.90;;;;;;4985248;28;20049;-80
2022/11/30 01:37:35;;;;;;;130.55;61.97;;;6.70;99.90;;;;;;4993013;28;20117;-80
2022/11/30 01:40:01;;;;;;;132.23;61.67;;;6.70;99.90;;;;;;4988959;28;20107;-80
2022/11/30 01:42:27;;;;;;;124.30;59.38;;;6.70;99.90;;;;;;4992733;28;20196;-80
2022/11/30 01:44:58;;;;;;;127.03;61.35;;;6.70;99.90;;;;;;4993027;28;20054;-80
2022/11/30 01:47:41;;;;;;;124.93;60.50;;;6.70;99.90;;;;;;4992656;28;20140;-80
2022/11/30 01:50:31;;;;;;;126.43;61.05;;;6.60;99.90;;;;;;4989335;28;20062;-80
2022/11/30 01:52:57;;;;;;;126.65;57.20;;;6.60;99.90;;;;;;4979101;28;20107;-80
2022/11/30 01:55:38;;;;;;;114.45;58.60;;;6.60;99.90;;;;;;5009084;28;20073;-80
2022/11/30 01:58:17;;;;;;;124.15;56.40;;;6.60;99.90;;;;;;4990215;28;20095;-80
2022/11/30 02:00:46;;;;;;;112.70;55.47;;;6.60;99.90;;;;;;4993184;28;20054;-80
2022/11/30 02:03:47;;;;;;;104.85;53.42;;;6.60;99.90;;;;;;4993213;28;20791;-80
2022/11/30 02:06:14;;;;;;;107.25;53.97;;;6.50;99.90;;;;;;4970693;28;20499;-80
2022/11/30 02:08:39;;;;;;;112.15;54.00;;;6.50;99.90;;;;;;4990602;28;20143;-80
2022/11/30 02:11:11;;;;;;;119.65;56.28;;;6.50;99.90;;;;;;4992542;28;20124;-80
2022/11/30 02:13:43;;;;;;;111.32;58.70;;;6.50;99.90;;;;;;4991299;28;20442;-80
2022/11/30 02:16:22;;;;;;;102.20;53.33;;;6.60;99.90;;;;;;4991311;28;20403;-80
2022/11/30 02:19:06;;;;;;;97.25;52.38;;;6.60;99.90;;;;;;4992759;28;20064;-80
2022/11/30 02:21:58;;;;;;;103.72;54.03;;;6.50;99.90;;;;;;4991011;28;20046;-80
2022/11/30 02:24:51;;;;;;;112.60;55.05;;;6.60;99.90;;;;;;4989232;28;20057;-80
2022/11/30 02:27:40;;;;;;;97.47;53.30;;;6.60;99.90;;;;;;4981716;28;20049;-79
2022/11/30 02:30:18;;;;;;;95.32;52.05;;;6.60;99.90;;;;;;4986695;28;20050;-79
2022/11/30 02:33:03;;;;;;;92.57;51.20;;;6.60;99.90;;;;;;4992834;28;20435;-79
2022/11/30 02:35:34;;;;;;;95.45;51.05;;;6.60;99.90;;;;;;4983226;28;20575;-80
2022/11/30 02:38:03;;;;;;;94.68;50.05;;;6.60;99.90;;;;;;4975968;28;20057;-80
2022/11/30 02:40:28;;;;;;;105.30;52.08;;;6.60;99.90;;;;;;5007642;28;20046;-80
2022/11/30 02:42:56;;;;;;;101.85;51.55;;;6.60;99.90;;;;;;4992480;28;20450;-80
2022/11/30 02:45:54;;;;;;;96.88;50.05;;;6.60;99.90;;;;;;5006105;28;20033;-79
2022/11/30 03:04:24;;;;;;;97.55;50.95;;;6.60;99.90;;;;;;4904981;28;20064;-80
2022/11/30 03:06:50;;;;;;;101.30;53.70;;;6.50;99.90;;;;;;4991112;28;20691;-80
2022/11/30 03:09:16;;;;;;;103.35;53.42;;;6.50;99.90;;;;;;4994321;28;20054;-80
2022/11/30 03:11:41;;;;;;;116.32;54.15;;;6.50;99.90;;;;;;4991894;28;20054;-80
2022/11/30 03:14:07;;;;;;;109.40;55.53;;;6.50;99.90;;;;;;4986406;28;20092;-80
2022/11/30 03:16:32;;;;;;;118.20;61.65;;;6.50;99.90;;;;;;4989658;28;20683;-80
2022/11/30 03:18:58;;;;;;;99.72;55.20;;;6.50;99.90;;;;;;4989986;28;20142;-80
2022/11/30 03:21:24;;;;;;;107.88;57.38;;;6.60;99.90;;;;;;4991562;28;20046;-80
2022/11/30 03:23:49;;;;;;;99.28;55.42;;;6.60;99.90;;;;;;4991047;28;20046;-80
2022/11/30 03:26:15;;;;;;;100.18;52.65;;;6.60;99.90;;;;;;4991603;28;20053;-80
2022/11/30 03:28:41;;;;;;;89.05;51.30;;;6.60;99.90;;;;;;4988368;28;20061;-80
2022/11/30 03:31:11;;;;;;;95.13;52.25;;;6.60;99.90;;;;;;4986361;28;20153;-80
2022/11/30 03:33:37;;;;;;;98.00;54.10;;;6.60;99.90;;;;;;4991229;28;20057;-80
2022/11/30 03:36:08;;;;;;;100.53;52.03;;;6.60;99.90;;;;;;4986684;28;20706;-80
2022/11/30 03:38:34;;;;;;;98.63;49.53;;;6.60;99.90;;;;;;4990360;28;20112;-80
2022/11/30 03:41:02;;;;;;;97.50;50.92;;;6.60;99.90;;;;;;4990725;28;20050;-80
2022/11/30 03:43:27;;;;;;;104.97;50.33;;;6.60;99.90;;;;;;4990522;28;20261;-80
2022/11/30 03:45:53;;;;;;;101.53;48.13;;;6.60;99.90;;;;;;4988205;28;20049;-80
2022/11/30 03:48:19;;;;;;;113.47;55.35;;;6.60;99.90;;;;;;4991054;28;20060;-80
2022/11/30 03:50:48;;;;;;;99.63;50.80;;;6.60;99.90;;;;;;4990663;28;20053;-80
2022/11/30 03:53:17;;;;;;;120.40;54.33;;;6.50;99.90;;;;;;4990569;28;20140;-80
2022/11/30 03:55:43;;;;;;;107.25;51.65;;;6.50;99.90;;;;;;4987897;28;20049;-80
2022/11/30 03:58:10;;;;;;;103.65;53.85;;;6.50;99.90;;;;;;4985161;28;20053;-80
2022/11/30 04:00:35;;;;;;;106.60;53.13;;;6.50;99.90;;;;;;4990808;28;20605;-80
2022/11/30 04:03:01;;;;;;;100.05;52.92;;;6.50;99.90;;;;;;4984223;28;20050;-80
2022/11/30 04:05:27;;;;;;;106.50;56.00;;;6.50;99.90;;;;;;4986193;28;20534;-80
2022/11/30 04:07:53;;;;;;;106.90;53.50;;;6.50;99.90;;;;;;4987101;28;20050;-80
2022/11/30 04:10:19;;;;;;;109.20;51.05;;;6.50;99.90;;;;;;4987459;28;20034;-80
2022/11/30 04:12:44;;;;;;;103.22;53.00;;;6.50;99.90;;;;;;4987986;28;20125;-80
2022/11/30 04:15:10;;;;;;;117.10;52.97;;;6.50;99.90;;;;;;4987394;28;20061;-81
2022/11/30 04:17:36;;;;;;;98.00;51.05;;;6.50;99.90;;;;;;4987935;28;20061;-80
2022/11/30 04:20:03;;;;;;;104.35;53.60;;;6.50;99.90;;;;;;4985216;28;20053;-80
2022/11/30 04:22:28;;;;;;;99.85;52.75;;;6.50;99.90;;;;;;4987935;28;20109;-80
2022/11/30 04:24:54;;;;;;;111.03;53.75;;;6.40;99.90;;;;;;4988250;28;20054;-80
2022/11/30 04:27:20;;;;;;;103.63;52.83;;;6.50;99.90;;;;;;4987368;28;20042;-80
2022/11/30 04:29:45;;;;;;;104.13;50.38;;;6.40;99.90;;;;;;4986442;28;20135;-80
2022/11/30 04:32:11;;;;;;;121.35;55.65;;;6.40;99.90;;;;;;4988045;28;20133;-80
2022/11/30 04:34:37;;;;;;;112.28;54.05;;;6.40;99.90;;;;;;4985469;28;20051;-80
2022/11/30 04:37:02;;;;;;;109.00;53.83;;;6.40;99.90;;;;;;4994988;28;20082;-80
2022/11/30 04:39:28;;;;;;;120.70;56.00;;;6.40;99.90;;;;;;4988076;28;20491;-80
2022/11/30 04:41:54;;;;;;;119.72;57.65;;;6.40;99.90;;;;;;4988152;28;20050;-80
2022/11/30 04:44:19;;;;;;;118.65;52.47;;;6.40;99.90;;;;;;4987847;28;20051;-80
2022/11/30 04:46:45;;;;;;;105.50;54.70;;;6.30;99.90;;;;;;4986649;28;20138;-80
2022/11/30 04:49:10;;;;;;;115.18;55.15;;;6.30;99.90;;;;;;4991952;28;20062;-80
2022/11/30 04:51:36;;;;;;;101.25;52.78;;;6.30;99.90;;;;;;4991108;28;20077;-80
2022/11/30 04:54:02;;;;;;;113.22;55.35;;;6.30;99.90;;;;;;4992243;28;20086;-80
2022/11/30 04:56:27;;;;;;;115.97;58.30;;;6.20;99.90;;;;;;4982034;28;20050;-80
2022/11/30 04:58:53;;;;;;;108.25;54.25;;;6.30;99.90;;;;;;4991302;28;20092;-81
2022/11/30 05:01:18;;;;;;;111.90;54.75;;;6.20;99.90;;;;;;4991998;28;20050;-80
2022/11/30 05:03:44;;;;;;;114.70;57.45;;;6.20;99.90;;;;;;4991654;28;20054;-80
2022/11/30 05:06:10;;;;;;;130.02;57.03;;;6.20;99.90;;;;;;4990878;28;20046;-80
2022/11/30 05:08:35;;;;;;;128.73;58.00;;;6.20;99.90;;;;;;4988742;28;20078;-79
2022/11/30 05:11:01;;;;;;;129.15;61.10;;;6.20;99.90;;;;;;4987614;28;20086;-80
2022/11/30 05:13:26;;;;;;;123.70;57.47;;;6.20;99.90;;;;;;4986023;28;20059;-80
2022/11/30 05:15:53;;;;;;;117.25;56.92;;;6.20;99.90;;;;;;4988759;28;20074;-80
2022/11/30 05:18:19;;;;;;;109.65;55.33;;;6.20;99.90;;;;;;5003480;28;20047;-80
2022/11/30 05:20:52;;;;;;;109.38;54.80;;;6.20;99.90;;;;;;4974404;28;20058;-80
2022/11/30 05:23:18;;;;;;;107.30;54.15;;;6.20;99.90;;;;;;4990060;28;20436;-80
2022/11/30 05:25:45;;;;;;;116.78;54.88;;;6.20;99.90;;;;;;4989648;28;20050;-80
2022/11/30 05:28:11;;;;;;;111.90;56.70;;;6.20;99.90;;;;;;4990118;28;20050;-80
2022/11/30 05:30:41;;;;;;;111.07;56.65;;;6.30;99.90;;;;;;4985286;28;20056;-80
2022/11/30 05:33:07;;;;;;;114.43;54.28;;;6.30;99.90;;;;;;4990240;28;20043;-80
2022/11/30 05:35:33;;;;;;;105.22;54.45;;;6.30;99.90;;;;;;5005308;28;20125;-80
2022/11/30 05:37:59;;;;;;;100.40;53.33;;;6.30;99.90;;;;;;4986038;28;20129;-80
2022/11/30 05:40:26;;;;;;;100.38;52.65;;;6.30;99.90;;;;;;4989895;28;20046;-79
2022/11/30 05:42:56;;;;;;;101.40;49.65;;;6.30;99.90;;;;;;4983645;28;20089;-78
2022/11/30 05:45:22;;;;;;;91.40;47.50;;;6.30;99.90;;;;;;4986051;28;20496;-78
2022/11/30 05:47:48;;;;;;;102.20;51.13;;;6.30;99.90;;;;;;4986621;28;20098;-79
2022/11/30 05:50:15;;;;;;;90.45;48.72;;;6.30;99.90;;;;;;4989794;28;20096;-78
2022/11/30 05:52:42;;;;;;;82.20;46.38;;;6.30;99.90;;;;;;4991487;28;20073;-78
2022/11/30 05:55:07;;;;;;;99.68;51.03;;;6.30;99.90;;;;;;4990336;28;20042;-78
2022/11/30 05:57:40;;;;;;;101.82;47.38;;;6.30;99.90;;;;;;4990172;28;20057;-79
2022/11/30 06:00:08;;;;;;;92.75;48.75;;;6.30;99.90;;;;;;4988606;28;20042;-79
2022/11/30 06:02:34;;;;;;;108.03;50.55;;;6.30;99.90;;;;;;5006100;28;20609;-79
2022/11/30 06:05:00;;;;;;;99.00;51.40;;;6.30;99.90;;;;;;4985678;28;20148;-79
2022/11/30 06:07:26;;;;;;;93.40;50.78;;;6.30;99.90;;;;;;4990176;28;20081;-79
2022/11/30 06:09:52;;;;;;;90.22;47.25;;;6.30;99.90;;;;;;4990035;28;20570;-79
2022/11/30 06:12:17;;;;;;;85.13;47.17;;;6.30;99.90;;;;;;4990189;28;20061;-79
2022/11/30 06:14:43;;;;;;;86.78;46.83;;;6.30;99.90;;;;;;4991025;28;20046;-78
2022/11/30 06:17:09;;;;;;;89.57;44.67;;;6.30;99.90;;;;;;4988129;28;20554;-78
2022/11/30 06:19:34;;;;;;;81.47;43.13;;;6.30;99.90;;;;;;4991338;28;20073;-78
2022/11/30 06:22:01;;;;;;;84.47;44.45;;;6.20;99.90;;;;;;4988636;28;20050;-78
2022/11/30 06:24:26;;;;;;;81.53;45.53;;;6.20;99.90;;;;;;4986762;28;20847;-78
2022/11/30 06:26:55;;;;;;;90.72;44.30;;;6.20;99.90;;;;;;4984293;28;20047;-77
2022/11/30 06:29:21;;;;;;;75.15;42.85;;;6.20;99.90;;;;;;4985271;28;20050;-78
2022/11/30 06:31:46;;;;;;;78.63;44.15;;;6.20;99.90;;;;;;4990788;28;20069;-78
2022/11/30 06:34:12;;;;;;;70.50;40.50;;;6.20;99.90;;;;;;4989597;28;20054;-77
2022/11/30 06:36:38;;;;;;;76.90;44.20;;;6.20;99.90;;;;;;4990387;28;20042;-78
2022/11/30 06:39:03;;;;;;;71.13;41.28;;;6.10;99.90;;;;;;4988376;28;20483;-78
2022/11/30 06:41:29;;;;;;;65.97;38.55;;;6.10;99.90;;;;;;4990078;28;20133;-78
2022/11/30 06:43:55;;;;;;;67.20;37.85;;;6.10;99.90;;;;;;4989259;28;20385;-78
2022/11/30 06:46:21;;;;;;;81.85;43.22;;;6.10;99.90;;;;;;4989248;28;20125;-78
2022/11/30 06:48:49;;;;;;;75.00;41.50;;;6.10;99.90;;;;;;4989710;28;20038;-76
2022/11/30 06:51:15;;;;;;;;;;;6.00;99.90;;;;;;4987803;28;20061;-77
2022/11/30 06:53:43;;;;;;;69.97;39.95;;;6.00;99.90;;;;;;4983410;28;19929;-77
2022/11/30 06:56:09;;;;;;;61.45;37.78;;;6.00;99.90;;;;;;4977965;28;20125;-78
2022/11/30 06:58:36;;;;;;;65.50;39.97;;;6.00;99.90;;;;;;4988583;28;20393;-78
2022/11/30 07:01:04;;;;;;;64.95;39.53;;;6.00;99.90;;;;;;4987995;28;20047;-77
2022/11/30 07:03:30;;;;;;;67.03;38.35;;;5.90;99.90;;;;;;5001263;28;20072;-78
2022/11/30 07:05:57;;;;;;;59.38;36.15;;;5.90;99.90;;;;;;5009286;28;20042;-76
2022/11/30 07:08:23;;;;;;;63.15;38.97;;;5.90;99.90;;;;;;4991667;28;20136;-77
2022/11/30 07:10:48;;;;;;;54.63;37.72;;;5.90;99.90;;;;;;4990920;28;20137;-78
2022/11/30 07:13:17;;;;;;;62.05;35.60;;;5.90;99.90;;;;;;4991768;28;20049;-77
2022/11/30 07:15:44;;;;;;;52.42;34.88;;;5.90;99.90;;;;;;4990714;28;20081;-78
2022/11/30 07:18:10;;;;;;;56.42;35.15;;;5.90;99.90;;;;;;5007993;28;20049;-77
2022/11/30 07:20:37;;;;;;;56.72;35.53;;;5.80;99.90;;;;;;5009554;28;20495;-77
2022/11/30 07:28:38;;;;;;;63.00;38.45;;;5.80;99.90;;;;;;5006982;28;20088;-78
2022/11/30 07:31:17;;;;;;;57.45;39.08;;;5.80;99.90;;;;;;5007957;28;20077;-77
2022/11/30 07:33:43;;;;;;;75.53;41.03;;;5.80;99.90;;;;;;4989171;28;20057;-77
2022/11/30 07:36:09;;;;;;;70.88;42.08;;;5.80;99.90;;;;;;4992751;28;20081;-78
2022/11/30 07:38:35;;;;;;;75.22;42.05;;;5.80;99.90;;;;;;4983750;28;20071;-77
2022/11/30 07:41:02;;;;;;;77.45;41.80;;;5.80;99.90;;;;;;4990749;28;20116;-77
2022/11/30 07:43:27;;;;;;;69.78;44.47;;;5.80;99.90;;;;;;4988264;28;20050;-76
2022/11/30 07:45:54;;;;;;;74.93;42.30;;;5.80;99.90;;;;;;4998017;28;20052;-76
2022/11/30 07:48:21;;;;;;;69.60;40.38;;;5.80;99.90;;;;;;5008018;28;20565;-77
2022/11/30 07:50:47;;;;;;;73.38;42.45;;;5.80;99.90;;;;;;4992441;28;20050;-77
2022/11/30 07:53:13;;;;;;;72.25;41.85;;;5.80;99.90;;;;;;4989804;28;20042;-77
2022/11/30 07:55:39;;;;;;;75.28;42.03;;;5.80;99.90;;;;;;4990714;28;20038;-77
2022/11/30 07:58:05;;;;;;;77.20;44.10;;;5.80;99.90;;;;;;4988091;28;20088;-77
2022/11/30 08:00:31;;;;;;;77.60;44.85;;;5.80;99.90;;;;;;4987401;28;20054;-76
2022/11/30 08:02:56;;;;;;;76.65;43.83;;;5.80;99.90;;;;;;4980162;28;20571;-78
2022/11/30 08:05:25;;;;;;;66.00;39.67;;;5.80;99.90;;;;;;4984265;28;20462;-79
2022/11/30 08:07:51;;;;;;;61.65;39.42;;;5.80;99.90;;;;;;4987992;28;20104;-79
2022/11/30 08:10:21;;;;;;;45.83;23.77;;;5.80;99.90;;;;;;4987132;28;20824;-79
2022/11/30 08:12:47;;;;;;;75.53;41.90;;;5.80;99.90;;;;;;4986425;28;20150;-79
2022/11/30 08:15:16;;;;;;;68.80;40.35;;;5.80;99.90;;;;;;4988446;28;20070;-79
2022/11/30 08:17:41;;;;;;;73.05;41.22;;;5.80;99.90;;;;;;4987223;28;20042;-79
2022/11/30 08:20:08;;;;;;;64.53;38.78;;;5.80;99.90;;;;;;4987290;28;20054;-79
2022/11/30 08:22:34;;;;;;;66.07;39.50;;;5.80;99.90;;;;;;4986872;28;20050;-79
2022/11/30 08:25:01;;;;;;;65.93;39.20;;;5.80;99.90;;;;;;4987182;28;20038;-79
2022/11/30 08:27:26;;;;;;;63.55;41.35;;;5.80;99.90;;;;;;4987146;28;20053;-79
2022/11/30 08:29:52;;;;;;;59.63;38.20;;;5.80;99.90;;;;;;4985504;28;20046;-79
2022/11/30 08:32:18;;;;;;;67.05;37.47;;;5.80;99.90;;;;;;4985320;28;20391;-78
2022/11/30 08:34:43;;;;;;;61.03;39.72;;;5.80;99.90;;;;;;4986329;28;20042;-78
2022/11/30 08:37:10;;;;;;;66.10;40.50;;;5.80;99.90;;;;;;4984863;28;20049;-78
2022/11/30 08:39:36;;;;;;;65.28;38.22;;;5.80;99.90;;;;;;4987677;28;20061;-80
2022/11/30 08:42:02;;;;;;;56.53;36.67;;;5.80;99.90;;;;;;4974946;28;20042;-79
2022/11/30 08:44:28;;;;;;;60.35;37.38;;;5.80;99.90;;;;;;4979265;28;20054;-77
2022/11/30 08:46:54;;;;;;;57.05;36.50;;;5.80;99.90;;;;;;4977745;28;20496;-78
2022/11/30 08:49:22;;;;;;;45.78;33.83;;;5.80;99.90;;;;;;4982901;28;20120;-79
2022/11/30 08:51:49;;;;;;;52.70;35.17;;;5.80;99.90;;;;;;5002335;28;20054;-78
2022/11/30 08:54:14;;;;;;;51.47;35.60;;;5.80;99.90;;;;;;4984735;28;20058;-78
2022/11/30 08:56:40;;;;;;;56.85;37.08;;;5.80;99.90;;;;;;4979506;28;20050;-79
2022/11/30 08:59:06;;;;;;;51.67;34.30;;;5.80;99.90;;;;;;4982026;28;20627;-79
2022/11/30 09:01:31;;;;;;;55.10;33.70;;;5.80;99.90;;;;;;4987036;28;20035;-80
2022/11/30 09:03:57;;;;;;;54.50;36.25;;;5.80;99.90;;;;;;4964489;28;20047;-80
2022/11/30 09:06:25;;;;;;;55.92;36.88;;;5.80;99.90;;;;;;4982511;28;20128;-79
2022/11/30 09:08:52;;;;;;;51.25;33.00;;;5.90;99.90;;;;;;4982081;28;20054;-79
2022/11/30 09:11:27;;;;;;;53.83;34.03;;;5.80;99.90;;;;;;4984651;28;20050;-80
2022/11/30 09:13:55;;;;;;;49.97;33.20;;;5.80;99.90;;;;;;4979998;28;20085;-79
2022/11/30 09:16:22;;;;;;;60.25;34.95;;;5.80;99.90;;;;;;4984233;28;20043;-80
2022/11/30 09:18:49;;;;;;;53.70;36.15;;;5.80;99.90;;;;;;4982445;28;20050;-80
2022/11/30 09:21:17;;;;;;;53.70;35.13;;;5.80;99.90;;;;;;4980303;28;20195;-80
2022/11/30 09:23:43;;;;;;;55.47;35.05;;;5.80;99.90;;;;;;4981134;28;20050;-79
2022/11/30 09:26:15;;;;;;;54.28;34.72;;;5.80;99.90;;;;;;4983723;28;20596;-80
2022/11/30 09:28:40;;;;;;;50.58;34.83;;;5.80;99.90;;;;;;5003603;28;20059;-80
2022/11/30 09:31:10;;;;;;;64.75;38.78;;;5.90;99.90;;;;;;4988289;28;20522;-81
2022/11/30 09:33:36;;;;;;;62.67;38.85;;;5.90;99.90;;;;;;4986723;28;20060;-80
2022/11/30 09:36:05;;;;;;;60.20;37.90;;;5.90;99.90;;;;;;4988138;28;20121;-80
2022/11/30 09:38:31;;;;;;;63.33;37.65;;;5.90;99.90;;;;;;4986821;28;20050;-80
2022/11/30 09:41:01;;;;;;;60.40;36.08;;;5.90;99.90;;;;;;4982567;28;20077;-80
2022/11/30 09:43:42;;;;;;;60.08;39.92;;;5.90;99.90;;;;;;4984374;28;20042;-80
2022/11/30 09:46:08;;;;;;;65.53;37.38;;;5.90;99.90;;;;;;4983088;28;20415;-79
2022/11/30 09:48:55;;;;;;;68.28;39.33;;;5.90;99.90;;;;;;4989543;28;20065;-81
2022/11/30 09:51:30;;;;;;;65.13;38.10;;;5.90;99.90;;;;;;4970244;28;20054;-79
2022/11/30 09:54:05;;;;;;;65.70;40.67;;;5.90;99.90;;;;;;4987425;28;20057;-81
2022/11/30 09:56:33;;;;;;;63.45;37.70;;;5.90;99.90;;;;;;4989526;28;20512;-80
2022/11/30 09:59:25;;;;;;;72.07;38.85;;;6.00;99.90;;;;;;4989276;28;20049;-80
2022/11/30 10:01:51;;;;;;;67.60;39.35;;;6.00;99.90;;;;;;4989228;28;20054;-80
2022/11/30 10:04:21;;;;;;;67.38;39.47;;;6.00;99.90;;;;;;4984679;28;20046;-79
2022/11/30 10:07:34;;;;;;;60.75;38.30;;;6.00;99.90;;;;;;4989185;28;20054;-79
2022/11/30 10:10:16;;;;;;;64.47;38.10;;;6.00;99.90;;;;;;4978786;28;20057;-80
2022/11/30 10:13:24;;;;;;;63.67;38.53;;;6.00;99.90;;;;;;4989623;28;20057;-80
2022/11/30 10:16:07;;;;;;;60.47;38.17;;;6.10;99.90;;;;;;4969231;28;20058;-80
2022/11/30 10:19:05;;;;;;;53.10;37.17;;;6.10;99.90;;;;;;4988488;28;20043;-79
2022/11/30 10:21:55;;;;;;;58.10;38.80;;;6.10;99.90;;;;;;4989261;28;20538;-79
2022/11/30 10:24:50;;;;;;;57.65;39.60;;;6.20;99.90;;;;;;4987438;28;20050;-80
2022/11/30 10:27:32;;;;;;;59.40;40.45;;;6.20;99.90;;;;;;4985390;28;20054;-79
2022/11/30 10:30:00;;;;;;;74.43;43.03;;;6.20;99.90;;;;;;5003062;28;20520;-79
2022/11/30 10:32:36;;;;;;;60.45;40.33;;;6.20;99.90;;;;;;4989594;28;20496;-79
2022/11/30 10:35:33;;;;;;;64.10;39.95;;;6.20;99.90;;;;;;4988223;28;20042;-79
2022/11/30 10:38:08;;;;;;;71.32;43.10;;;6.20;99.90;;;;;;4982583;28;20063;-79
2022/11/30 10:40:42;;;;;;;77.47;40.72;;;6.20;99.90;;;;;;4988186;28;20050;-80
2022/11/30 10:43:32;;;;;;;75.70;45.42;;;6.20;99.90;;;;;;4981608;28;20089;-79
2022/11/30 10:45:58;;;;;;;76.85;43.83;;;6.20;99.90;;;;;;4979893;28;20073;-80
2022/11/30 10:48:36;;;;;;;75.00;43.08;;;6.20;99.90;;;;;;4982670;28;20122;-80
2022/11/30 10:51:03;;;;;;;66.88;41.55;;;6.20;99.90;;;;;;4987405;28;20053;-80
2022/11/30 10:53:31;;;;;;;61.20;39.30;;;6.20;99.90;;;;;;4988558;28;20104;-80
2022/11/30 10:56:08;;;;;;;65.60;41.20;;;6.20;99.90;;;;;;4987748;28;20045;-80
2022/11/30 10:58:55;;;;;;;70.70;43.35;;;6.20;99.90;;;;;;4988247;28;20310;-80
2022/11/30 11:01:36;;;;;;;72.25;40.42;;;6.30;99.90;;;;;;4988531;28;20077;-80
2022/11/30 11:04:26;;;;;;;66.68;41.95;;;6.30;99.90;;;;;;4987442;28;20043;-79
2022/11/30 11:07:21;;;;;;;78.60;41.53;;;6.30;99.90;;;;;;4973379;28;20058;-80
2022/11/30 11:09:50;;;;;;;71.75;42.65;;;6.30;99.90;;;;;;4971455;28;20062;-79
2022/11/30 11:12:19;;;;;;;66.03;42.47;;;6.40;99.90;;;;;;4988228;28;20050;-80
2022/11/30 11:14:45;;;;;;;81.45;45.97;;;6.30;99.90;;;;;;4982061;28;20407;-80
2022/11/30 11:17:22;;;;;;;77.28;45.50;;;6.30;99.90;;;;;;4985378;28;20042;-79
2022/11/30 11:19:50;;;;;;;80.13;44.17;;;6.40;99.90;;;;;;4981825;28;20058;-79
2022/11/30 11:22:18;;;;;;;75.03;44.50;;;6.40;99.90;;;;;;4988979;28;20050;-79
2022/11/30 11:24:45;;;;;;;82.22;47.65;;;6.40;99.90;;;;;;4989606;28;20049;-79
2022/11/30 11:27:27;;;;;;;80.32;43.05;;;6.40;99.90;;;;;;4987614;28;20043;-80
2022/11/30 11:30:26;;;;;;;78.43;46.58;;;6.40;99.90;;;;;;4985325;28;20124;-80
2022/11/30 11:33:00;;;;;;;80.25;47.78;;;6.40;99.90;;;;;;4981175;28;20046;-80
2022/11/30 11:35:49;;;;;;;97.15;50.13;;;6.30;99.90;;;;;;4984861;28;20047;-81
2022/11/30 11:38:29;;;;;;;100.32;53.13;;;6.30;99.90;;;;;;4986043;28;20042;-81
2022/11/30 11:40:57;;;;;;;85.28;47.55;;;6.30;99.90;;;;;;4983200;28;20057;-82
2022/11/30 11:43:26;;;;;;;85.88;48.13;;;6.30;99.90;;;;;;4987908;28;20896;-81
2022/11/30 11:45:55;;;;;;;96.40;51.88;;;6.30;99.90;;;;;;4988574;28;20049;-80
2022/11/30 11:48:34;;;;;;;94.72;51.47;;;6.30;99.90;;;;;;4977328;28;20047;-80
2022/11/30 11:51:09;;;;;;;92.80;50.10;;;6.30;99.90;;;;;;4986505;28;20097;-80
2022/11/30 11:53:47;;;;;;;102.88;51.53;;;6.30;99.90;;;;;;4983635;28;20089;-80
2022/11/30 11:56:21;;;;;;;113.10;53.97;;;6.30;99.90;;;;;;4986632;28;20046;-81
2022/11/30 11:59:42;;;;;;;116.05;53.55;;;6.30;99.90;;;;;;4983094;28;20053;-80
2022/11/30 12:02:26;;;;;;;105.00;55.63;;;6.30;99.90;;;;;;4925609;29;20051;-80
2022/11/30 12:05:00;;;;;;;117.72;57.70;;;6.30;99.90;;;;;;4960263;28;20154;-80
2022/11/30 12:07:40;;;;;;;112.07;57.63;;;6.30;99.90;;;;;;4970977;28;20140;-80
2022/11/30 12:10:24;;;;;;;111.72;56.97;;;6.30;99.90;;;;;;4962807;28;20154;-80
2022/11/30 12:12:49;;;;;;;108.22;53.85;;;6.30;99.90;;;;;;4967717;28;20770;-79
2022/11/30 12:15:15;;;;;;;111.53;56.30;;;6.30;99.90;;;;;;4967445;28;20047;-79
2022/11/30 12:18:08;;;;;;;116.28;56.42;;;6.30;99.90;;;;;;4966583;28;20050;-80
2022/11/30 12:20:51;;;;;;;135.43;64.72;;;6.40;99.90;;;;;;4967932;28;20058;-79
2022/11/30 12:23:52;;;;;;;123.00;60.67;;;6.30;99.90;;;;;;4971830;28;20042;-80
2022/11/30 12:26:31;;;;;;;124.32;60.25;;;6.30;99.90;;;;;;4983302;28;20047;-79
2022/11/30 12:29:22;;;;;;;133.23;65.82;;;6.30;99.90;;;;;;4965920;28;20120;-80
2022/11/30 12:32:33;;;;;;;142.18;65.25;;;6.30;99.90;;;;;;4970314;28;20134;-80
2022/11/30 12:35:29;;;;;;;145.63;67.00;;;6.30;99.90;;;;;;4913896;29;20055;-80
2022/11/30 12:38:19;;;;;;;138.27;66.15;;;6.30;99.90;;;;;;4978176;28;20043;-80
2022/11/30 12:41:12;;;;;;;136.90;64.55;;;6.30;99.90;;;;;;4981529;28;20749;-80
2022/11/30 12:44:00;;;;;;;119.10;60.10;;;6.20;99.90;;;;;;4966219;28;20054;-80
2022/11/30 12:46:50;;;;;;;120.93;62.78;;;6.30;99.90;;;;;;4965554;28;20051;-79
2022/11/30 12:49:47;;;;;;;133.38;64.63;;;6.30;99.90;;;;;;4969740;28;20057;-80
2022/11/30 12:52:22;;;;;;;129.30;61.80;;;6.20;99.90;;;;;;4970580;28;20046;-80
2022/11/30 12:55:28;;;;;;;140.23;67.95;;;6.20;99.90;;;;;;4958977;28;20054;-79
2022/11/30 12:58:12;;;;;;;143.00;69.05;;;6.20;99.90;;;;;;4964553;28;20055;-79
2022/11/30 13:01:03;;;;;;;131.52;69.60;;;6.20;99.90;;;;;;4964343;28;20130;-79
2022/11/30 13:03:51;;;;;;;137.07;66.88;;;6.20;99.90;;;;;;4971592;28;20396;-80
2022/11/30 13:06:36;;;;;;;147.70;70.22;;;6.20;99.90;;;;;;4980793;28;20042;-80
2022/11/30 13:09:43;;;;;;;157.48;72.10;;;6.20;99.90;;;;;;4987971;28;20048;-81
2022/11/30 13:12:36;;;;;;;148.85;73.28;;;6.20;99.90;;;;;;4984509;28;20452;-81
2022/11/30 13:15:18;;;;;;;155.30;76.05;;;6.20;99.90;;;;;;4979619;28;20064;-80